Time;durP1;ratioP1;P1;durP2;ratioP2;P2;SDS_P1;SDS_P2;PMS_P1;PMS_P2;Temp;Humidity;BMP_temperature;BMP_pressure;BME280_temperature;BME280_humidity;BME280_pressure;Samples;Min_cycle;Max_cycle;Signal;HPM_P1;HPM_P2
2023/07/14 00:01:29;;;;;;;;;;;;;;;;;;5036804;28;19913;-22
2023/07/14 00:03:55;;;;;;;;;;;;;;;;;;5036653;28;19921;-21
2023/07/14 00:06:21;;;;;;;;;;;;;;;;;;5036792;28;19909;-20
2023/07/14 00:08:47;;;;;;;;;;;;;;;;;;5037754;28;19959;-20
2023/07/14 00:11:13;;;;;;;;;;;;;;;;;;5036738;28;20352;-23
2023/07/14 00:13:39;;;;;;;;;;;;;;;;;;5036577;28;19924;-22
2023/07/14 00:16:05;;;;;;;;;;;;;;;;;;5036895;28;20252;-21
2023/07/14 00:18:31;;;;;;;;;;;;;;;;;;5036729;28;19913;-20
2023/07/14 00:20:57;;;;;;;;;;;;;;;;;;5036699;28;19910;-20
2023/07/14 00:23:23;;;;;;;;;;;;;;;;;;5036246;28;20052;-20
2023/07/14 00:25:50;;;;;;;;;;;;;;;;;;5036383;28;19924;-22
2023/07/14 00:28:16;;;;;;;;;;;;;;;;;;5036287;28;19916;-21
2023/07/14 00:30:42;;;;;;;;;;;;;;;;;;5036581;28;19909;-22
2023/07/14 00:33:08;;;;;;;;;;;;;;;;;;5036211;28;20335;-21
2023/07/14 00:35:34;;;;;;;;;;;;;;;;;;5036573;28;19920;-21
2023/07/14 00:38:00;;;;;;;;;;;;;;;;;;5036391;28;20339;-20
2023/07/14 00:40:26;;;;;;;;;;;;;;;;;;5034995;28;19921;-20
2023/07/14 00:42:52;;;;;;;;;;;;;;;;;;5036043;28;19909;-21
2023/07/14 00:45:18;;;;;;;;;;;;;;;;;;5036303;28;19971;-24
2023/07/14 00:47:44;;;;;;;;;;;;;;;;;;5036965;28;20225;-21
2023/07/14 00:50:10;;;;;;;;;;;;;;;;;;5036009;28;19916;-21
2023/07/14 00:52:36;;;;;;;;;;;;;;;;;;5036119;28;19974;-20
2023/07/14 00:55:02;;;;;;;;;;;;;;;;;;5035804;28;19920;-21
2023/07/14 00:57:29;;;;;;;;;;;;;;;;;;5035971;28;19920;-20
2023/07/14 00:59:55;;;;;;;;;;;;;;;;;;5035749;28;19994;-21
2023/07/14 01:02:21;;;;;;;;;;;;;;;;;;5035585;28;19909;-21
2023/07/14 01:04:47;;;;;;;;;;;;;;;;;;5035989;28;19913;-22
2023/07/14 01:07:14;;;;;;;;;;;;;;;;;;5035617;28;19996;-21
2023/07/14 01:09:40;;;;;;;;;;;;;;;;;;5036469;28;19909;-21
2023/07/14 01:12:06;;;;;;;;;;;;;;;;;;5035479;28;19909;-20
2023/07/14 01:14:32;;;;;;;;;;;;;;;;;;5035708;28;19948;-20
2023/07/14 01:16:58;;;;;;;;;;;;;;;;;;5035383;28;19913;-21
2023/07/14 01:19:24;;;;;;;;;;;;;;;;;;5035382;28;19990;-21
2023/07/14 01:21:50;;;;;;;;;;;;;;;;;;5035230;28;19909;-20
2023/07/14 01:24:16;;;;;;;;;;;;;;;;;;5035303;28;19909;-22
2023/07/14 01:26:43;;;;;;;;;;;;;;;;;;5035330;28;20391;-20
2023/07/14 01:29:09;;;;;;;;;;;;;;;;;;5035241;28;20057;-21
2023/07/14 01:31:35;;;;;;;;;;;;;;;;;;5017752;28;19963;-20
2023/07/14 01:34:02;;;;;;;;;;;;;;;;;;5034941;28;20214;-21
2023/07/14 01:36:28;;;;;;;;;;;;;;;;;;5035024;28;19916;-22
2023/07/14 01:38:54;;;;;;;;;;;;;;;;;;5017576;28;19913;-21
2023/07/14 01:41:20;;;;;;;;;;;;;;;;;;5035256;28;20347;-22
2023/07/14 01:43:46;;;;;;;;;;;;;;;;;;5017410;28;20344;-21
2023/07/14 01:46:12;;;;;;;;;;;;;;;;;;5034876;28;20379;-21
2023/07/14 01:48:39;;;;;;;;;;;;;;;;;;5035079;28;19909;-20
2023/07/14 01:51:05;;;;;;;;;;;;;;;;;;5034538;28;20067;-20
2023/07/14 01:53:32;;;;;;;;;;;;;;;;;;5034811;28;19909;-21
2023/07/14 01:55:58;;;;;;;;;;;;;;;;;;5034714;28;19956;-22
2023/07/14 01:58:24;;;;;;;;;;;;;;;;;;5017246;28;19913;-21
2023/07/14 02:00:50;;;;;;;;;;;;;;;;;;5017342;28;19920;-21
2023/07/14 02:03:18;;;;;;;;;;;;;;;;;;5034483;28;19975;-20
2023/07/14 02:05:44;;;;;;;;;;;;;;;;;;5017311;28;20276;-21
2023/07/14 02:08:10;;;;;;;;;;;;;;;;;;5034739;28;19915;-21
2023/07/14 02:10:36;;;;;;;;;;;;;;;;;;5034645;28;19992;-21
2023/07/14 02:13:02;;;;;;;;;;;;;;;;;;5035109;28;19910;-19
2023/07/14 02:15:28;;;;;;;;;;;;;;;;;;5034557;28;19971;-21
2023/07/14 02:17:55;;;;;;;;;;;;;;;;;;5034475;28;19913;-22
2023/07/14 02:20:21;;;;;;;;;;;;;;;;;;5034699;28;19913;-21
2023/07/14 02:22:47;;;;;;;;;;;;;;;;;;5034671;28;20362;-22
2023/07/14 02:25:13;;;;;;;;;;;;;;;;;;5034791;28;19909;-24
2023/07/14 02:27:39;;;;;;;;;;;;;;;;;;5034680;28;19917;-22
2023/07/14 02:30:05;;;;;;;;;;;;;;;;;;5034483;28;19909;-21
2023/07/14 02:32:32;;;;;;;;;;;;;;;;;;5016902;28;19909;-20
2023/07/14 02:34:58;;;;;;;;;;;;;;;;;;5034432;28;19924;-23
2023/07/14 02:37:24;;;;;;;;;;;;;;;;;;5034321;28;19919;-22
2023/07/14 02:39:50;;;;;;;;;;;;;;;;;;5034519;28;20295;-23
2023/07/14 02:42:16;;;;;;;;;;;;;;;;;;5034269;28;20363;-22
2023/07/14 02:44:42;;;;;;;;;;;;;;;;;;5016843;28;19909;-20
2023/07/14 02:47:08;;;;;;;;;;;;;;;;;;5034332;28;19909;-20
2023/07/14 02:49:34;;;;;;;;;;;;;;;;;;5016865;28;20259;-22
2023/07/14 02:52:00;;;;;;;;;;;;;;;;;;5034251;28;19917;-21
2023/07/14 02:54:26;;;;;;;;;;;;;;;;;;5034119;28;20363;-21
2023/07/14 02:56:52;;;;;;;;;;;;;;;;;;5034112;28;19947;-22
2023/07/14 02:59:18;;;;;;;;;;;;;;;;;;5034444;28;19909;-20
2023/07/14 03:01:44;;;;;;;;;;;;;;;;;;5035003;28;19909;-20
2023/07/14 03:04:10;;;;;;;;;;;;;;;;;;5001145;28;19925;-22
2023/07/14 03:06:36;;;;;;;;;;;;;;;;;;4998807;28;19920;-23
2023/07/14 03:09:02;;;;;;;;;;;;;;;;;;4998484;28;19910;-22
2023/07/14 03:11:28;;;;;;;;;;;;;;;;;;4998382;28;19910;-20
2023/07/14 03:13:54;;;;;;;;;;;;;;;;;;4998408;28;19921;-20
2023/07/14 03:16:20;;;;;;;;;;;;;;;;;;4998317;28;19968;-21
2023/07/14 03:18:46;;;;;;;;;;;;;;;;;;4998261;28;20326;-22
2023/07/14 03:21:12;;;;;;;;;;;;;;;;;;4997353;28;20008;-21
2023/07/14 03:23:38;;;;;;;;;;;;;;;;;;4998112;28;19923;-22
2023/07/14 03:26:05;;;;;;;;;;;;;;;;;;4998174;28;19910;-20
2023/07/14 03:28:31;;;;;;;;;;;;;;;;;;4998033;28;19910;-22
2023/07/14 03:30:57;;;;;;;;;;;;;;;;;;4998347;28;19972;-20
2023/07/14 03:33:23;;;;;;;;;;;;;;;;;;4997973;28;20317;-21
2023/07/14 03:35:49;;;;;;;;;;;;;;;;;;4996947;28;19972;-22
2023/07/14 03:38:15;;;;;;;;;;;;;;;;;;4998007;28;20366;-24
2023/07/14 03:40:41;;;;;;;;;;;;;;;;;;4996673;28;20012;-22
2023/07/14 03:43:07;;;;;;;;;;;;;;;;;;4997648;28;20333;-22
2023/07/14 03:45:33;;;;;;;;;;;;;;;;;;4997962;28;19910;-21
2023/07/14 03:47:59;;;;;;;;;;;;;;;;;;4996613;28;20264;-21
2023/07/14 03:50:25;;;;;;;;;;;;;;;;;;4997575;28;19910;-25
2023/07/14 03:52:52;;;;;;;;;;;;;;;;;;4997523;28;19917;-20
2023/07/14 03:55:18;;;;;;;;;;;;;;;;;;4996397;28;20009;-22
2023/07/14 03:57:44;;;;;;;;;;;;;;;;;;4997533;28;20290;-21
2023/07/14 04:00:13;;;;;;;;;;;;;;;;;;4997659;28;19940;-21
2023/07/14 04:02:39;;;;;;;;;;;;;;;;;;5003715;28;19923;-21
2023/07/14 04:05:07;;;;;;;;;;;;;;;;;;5036718;28;20291;-21
2023/07/14 04:07:33;;;;;;;;;;;;;;;;;;5036821;28;19908;-21
2023/07/14 04:09:59;;;;;;;;;;;;;;;;;;5036166;28;19920;-20
2023/07/14 04:12:25;;;;;;;;;;;;;;;;;;5035908;28;20213;-20
2023/07/14 04:14:51;;;;;;;;;;;;;;;;;;5036056;28;19909;-21
2023/07/14 04:17:17;;;;;;;;;;;;;;;;;;5035771;28;19917;-21
2023/07/14 04:19:43;;;;;;;;;;;;;;;;;;5036069;28;20289;-21
2023/07/14 04:22:09;;;;;;;;;;;;;;;;;;5036294;28;20062;-22
2023/07/14 04:24:35;;;;;;;;;;;;;;;;;;5035946;28;19910;-21
2023/07/14 04:27:01;;;;;;;;;;;;;;;;;;5035907;28;20013;-22
2023/07/14 04:29:27;;;;;;;;;;;;;;;;;;5035974;28;19924;-21
2023/07/14 04:31:53;;;;;;;;;;;;;;;;;;5036829;28;19978;-21
2023/07/14 04:34:19;;;;;;;;;;;;;;;;;;5035843;28;19909;-21
2023/07/14 04:36:47;;;;;;;;;;;;;;;;;;5035774;28;19909;-23
2023/07/14 04:39:13;;;;;;;;;;;;;;;;;;5036057;28;19916;-21
2023/07/14 04:41:39;;;;;;;;;;;;;;;;;;5035546;28;20160;-20
2023/07/14 04:44:05;;;;;;;;;;;;;;;;;;5017901;28;20359;-21
2023/07/14 04:46:31;;;;;;;;;;;;;;;;;;5018151;28;19909;-20
2023/07/14 04:48:57;;;;;;;;;;;;;;;;;;5017840;28;19932;-21
2023/07/14 04:51:23;;;;;;;;;;;;;;;;;;5035522;28;20352;-22
2023/07/14 04:53:49;;;;;;;;;;;;;;;;;;5017852;28;19920;-21
2023/07/14 04:56:15;;;;;;;;;;;;;;;;;;5035650;28;19951;-21
2023/07/14 04:58:41;;;;;;;;;;;;;;;;;;5017796;28;20316;-21
2023/07/14 05:01:08;;;;;;;;;;;;;;;;;;5035379;28;19909;-21
2023/07/14 05:03:33;;;;;;;;;;;;;;;;;;5035059;28;19928;-22
2023/07/14 05:05:59;;;;;;;;;;;;;;;;;;5035268;28;19913;-21
2023/07/14 05:08:26;;;;;;;;;;;;;;;;;;5034967;28;19939;-23
2023/07/14 05:10:52;;;;;;;;;;;;;;;;;;5035624;28;19909;-21
2023/07/14 05:13:18;;;;;;;;;;;;;;;;;;5035029;28;19917;-20
2023/07/14 05:15:45;;;;;;;;;;;;;;;;;;5017529;28;19909;-20
2023/07/14 05:18:11;;;;;;;;;;;;;;;;;;5035123;28;20023;-20
2023/07/14 05:20:37;;;;;;;;;;;;;;;;;;5035195;28;19945;-21
2023/07/14 05:23:03;;;;;;;;;;;;;;;;;;5034854;28;19971;-21
2023/07/14 05:25:29;;;;;;;;;;;;;;;;;;5016904;28;19909;-20
2023/07/14 05:27:55;;;;;;;;;;;;;;;;;;5017499;28;19913;-20
2023/07/14 05:30:21;;;;;;;;;;;;;;;;;;5035024;28;20291;-26
2023/07/14 05:32:47;;;;;;;;;;;;;;;;;;5035025;28;19949;-22
2023/07/14 05:35:13;;;;;;;;;;;;;;;;;;5034987;28;20035;-21
2023/07/14 05:37:39;;;;;;;;;;;;;;;;;;5034702;28;19914;-23
2023/07/14 05:40:10;;;;;;;;;;;;;;;;;;5034771;28;19919;-21
2023/07/14 05:42:36;;;;;;;;;;;;;;;;;;5034301;28;19909;-21
2023/07/14 05:45:03;;;;;;;;;;;;;;;;;;5016701;28;20341;-20
2023/07/14 05:47:29;;;;;;;;;;;;;;;;;;5034234;28;19909;-20
2023/07/14 05:49:55;;;;;;;;;;;;;;;;;;5017052;28;19921;-20
2023/07/14 05:52:21;;;;;;;;;;;;;;;;;;5034579;28;20260;-21
2023/07/14 05:54:47;;;;;;;;;;;;;;;;;;5035002;28;19910;-22
2023/07/14 05:57:13;;;;;;;;;;;;;;;;;;5017014;28;19913;-21
2023/07/14 05:59:39;;;;;;;;;;;;;;;;;;5034219;28;20042;-21
2023/07/14 06:02:05;;;;;;;;;;;;;;;;;;5034430;28;19941;-20
2023/07/14 06:04:36;;;;;;;;;;;;;;;;;;5033936;28;19971;-22
2023/07/14 06:07:03;;;;;;;;;;;;;;;;;;5033904;28;20328;-21
2023/07/14 06:09:29;;;;;;;;;;;;;;;;;;5034405;28;19919;-20
2023/07/14 06:11:55;;;;;;;;;;;;;;;;;;5034115;28;20000;-21
2023/07/14 06:14:21;;;;;;;;;;;;;;;;;;5034447;28;19909;-21
2023/07/14 06:16:47;;;;;;;;;;;;;;;;;;5033506;28;20247;-20
2023/07/14 06:19:13;;;;;;;;;;;;;;;;;;5033675;28;19909;-21
2023/07/14 06:21:39;;;;;;;;;;;;;;;;;;5033612;28;19952;-24
2023/07/14 06:24:07;;;;;;;;;;;;;;;;;;5033483;28;19943;-21
2023/07/14 06:26:33;;;;;;;;;;;;;;;;;;5033451;28;19909;-22
2023/07/14 06:28:59;;;;;;;;;;;;;;;;;;5033403;28;19992;-21
2023/07/14 06:31:25;;;;;;;;;;;;;;;;;;5033482;28;19909;-22
2023/07/14 06:33:51;;;;;;;;;;;;;;;;;;5033591;28;20240;-21
2023/07/14 06:36:17;;;;;;;;;;;;;;;;;;5034251;28;20340;-22
2023/07/14 06:38:43;;;;;;;;;;;;;;;;;;5038186;28;20003;-20
2023/07/14 06:41:09;;;;;;;;;;;;;;;;;;5038006;28;19936;-22
2023/07/14 06:43:36;;;;;;;;;;;;;;;;;;5038227;28;20263;-22
2023/07/14 06:46:02;;;;;;;;;;;;;;;;;;5020402;28;19909;-22
2023/07/14 06:48:28;;;;;;;;;;;;;;;;;;5037877;28;19909;-22
2023/07/14 06:50:54;;;;;;;;;;;;;;;;;;5020253;28;19932;-21
2023/07/14 06:53:20;;;;;;;;;;;;;;;;;;5037801;28;20285;-21
2023/07/14 06:55:47;;;;;;;;;;;;;;;;;;5037639;28;19916;-21
2023/07/14 06:58:13;;;;;;;;;;;;;;;;;;5037678;28;20367;-21
2023/07/14 07:00:39;;;;;;;;;;;;;;;;;;5037690;28;19960;-22
2023/07/14 07:03:05;;;;;;;;;;;;;;;;;;5037258;28;20012;-21
2023/07/14 07:05:31;;;;;;;;;;;;;;;;;;5037544;28;19934;-20
2023/07/14 07:07:57;;;;;;;;;;;;;;;;;;5037391;28;19916;-20
2023/07/14 07:10:23;;;;;;;;;;;;;;;;;;5037500;28;20385;-20
2023/07/14 07:12:49;;;;;;;;;;;;;;;;;;5019951;28;19995;-21
2023/07/14 07:15:15;;;;;;;;;;;;;;;;;;5037415;28;19948;-22
2023/07/14 07:17:41;;;;;;;;;;;;;;;;;;5037248;28;20362;-20
2023/07/14 07:20:07;;;;;;;;;;;;;;;;;;5019949;28;19995;-20
2023/07/14 07:22:33;;;;;;;;;;;;;;;;;;5037212;28;20262;-20
2023/07/14 07:24:59;;;;;;;;;;;;;;;;;;5037412;28;19913;-21
2023/07/14 07:27:25;;;;;;;;;;;;;;;;;;5037298;28;20252;-22
2023/07/14 07:29:51;;;;;;;;;;;;;;;;;;5037263;28;19910;-21
2023/07/14 07:32:17;;;;;;;;;;;;;;;;;;5037421;28;19920;-21
2023/07/14 07:34:43;;;;;;;;;;;;;;;;;;5019567;28;19909;-20
2023/07/14 07:37:10;;;;;;;;;;;;;;;;;;5036725;28;20003;-21
2023/07/14 07:39:36;;;;;;;;;;;;;;;;;;5037581;28;19951;-21
2023/07/14 07:42:02;;;;;;;;;;;;;;;;;;5036736;28;19917;-22
2023/07/14 07:44:28;;;;;;;;;;;;;;;;;;5036996;28;19909;-22
2023/07/14 07:46:54;;;;;;;;;;;;;;;;;;5036975;28;19999;-21
2023/07/14 07:49:20;;;;;;;;;;;;;;;;;;5036460;28;20225;-20
2023/07/14 07:51:47;;;;;;;;;;;;;;;;;;5037245;28;19968;-22
2023/07/14 07:54:13;;;;;;;;;;;;;;;;;;5037155;28;19978;-21
2023/07/14 07:56:42;;;;;;;;;;;;;;;;;;5036950;28;19917;-23
2023/07/14 07:59:08;;;;;;;;;;;;;;;;;;5036967;28;19913;-20
2023/07/14 08:01:34;;;;;;;;;;;;;;;;;;5036874;28;19910;-20
2023/07/14 08:04:00;;;;;;;;;;;;;;;;;;5018648;28;19928;-23
2023/07/14 08:06:28;;;;;;;;;;;;;;;;;;5036205;28;19996;-22
2023/07/14 08:08:54;;;;;;;;;;;;;;;;;;5036344;28;19945;-21
2023/07/14 08:11:20;;;;;;;;;;;;;;;;;;5035960;28;19920;-24
2023/07/14 08:13:47;;;;;;;;;;;;;;;;;;5036004;28;19921;-21
2023/07/14 08:16:13;;;;;;;;;;;;;;;;;;5036100;28;19913;-21
2023/07/14 08:18:39;;;;;;;;;;;;;;;;;;5036109;28;19988;-21
2023/07/14 08:21:05;;;;;;;;;;;;;;;;;;5036051;28;19909;-22
2023/07/14 08:23:31;;;;;;;;;;;;;;;;;;5035851;28;19963;-22
2023/07/14 08:25:57;;;;;;;;;;;;;;;;;;5036258;28;19936;-22
2023/07/14 08:28:23;;;;;;;;;;;;;;;;;;5036174;28;19937;-23
2023/07/14 08:30:50;;;;;;;;;;;;;;;;;;5036229;28;19968;-20
2023/07/14 08:33:16;;;;;;;;;;;;;;;;;;5035892;28;20338;-20
2023/07/14 08:35:42;;;;;;;;;;;;;;;;;;5036424;28;19917;-21
2023/07/14 08:38:08;;;;;;;;;;;;;;;;;;5036113;28;19960;-22
2023/07/14 08:40:34;;;;;;;;;;;;;;;;;;5036080;28;20392;-22
2023/07/14 08:43:00;;;;;;;;;;;;;;;;;;5018085;28;19923;-21
2023/07/14 08:45:26;;;;;;;;;;;;;;;;;;5035716;28;20060;-20
2023/07/14 08:47:52;;;;;;;;;;;;;;;;;;5018199;28;20248;-20
2023/07/14 08:50:18;;;;;;;;;;;;;;;;;;5017795;28;19916;-21
2023/07/14 08:52:44;;;;;;;;;;;;;;;;;;5035431;28;19940;-22
2023/07/14 08:55:10;;;;;;;;;;;;;;;;;;5035565;28;19940;-21
2023/07/14 08:57:36;;;;;;;;;;;;;;;;;;5035382;28;19935;-21
2023/07/14 09:00:03;;;;;;;;;;;;;;;;;;5034176;28;20324;-21
2023/07/14 09:02:29;;;;;;;;;;;;;;;;;;5034725;28;19917;-22
2023/07/14 09:04:55;;;;;;;;;;;;;;;;;;5035320;28;19968;-20
2023/07/14 09:07:21;;;;;;;;;;;;;;;;;;5034971;28;19944;-22
2023/07/14 09:09:47;;;;;;;;;;;;;;;;;;5035152;28;19951;-23
2023/07/14 09:12:15;;;;;;;;;;;;;;;;;;5034870;28;19909;-21
2023/07/14 09:14:43;;;;;;;;;;;;;;;;;;5035055;28;19955;-22
2023/07/14 09:17:09;;;;;;;;;;;;;;;;;;5034718;28;19913;-22
2023/07/14 09:19:35;;;;;;;;;;;;;;;;;;5034992;28;19916;-21
2023/07/14 09:22:01;;;;;;;;;;;;;;;;;;5035068;28;20046;-22
2023/07/14 09:24:27;;;;;;;;;;;;;;;;;;5035209;28;20260;-19
2023/07/14 09:26:53;;;;;;;;;;;;;;;;;;5035388;28;20313;-20
2023/07/14 09:29:19;;;;;;;;;;;;;;;;;;5034953;28;19940;-23
2023/07/14 09:31:45;;;;;;;;;;;;;;;;;;5034915;28;19959;-22
2023/07/14 09:34:11;;;;;;;;;;;;;;;;;;5017279;28;19909;-23
2023/07/14 09:36:38;;;;;;;;;;;;;;;;;;5035007;28;19909;-21
2023/07/14 09:39:04;;;;;;;;;;;;;;;;;;5034530;28;20367;-21
2023/07/14 09:41:30;;;;;;;;;;;;;;;;;;5035116;28;20291;-20
2023/07/14 09:43:57;;;;;;;;;;;;;;;;;;5035169;28;19916;-20
2023/07/14 09:46:24;;;;;;;;;;;;;;;;;;5035029;28;19919;-21
2023/07/14 09:48:50;;;;;;;;;;;;;;;;;;5034761;28;19999;-22
2023/07/14 09:51:16;;;;;;;;;;;;;;;;;;5034809;28;20351;-22
2023/07/14 09:53:41;;;;;;;;;;;;;;;;;;5034732;28;19915;-22
2023/07/14 09:56:07;;;;;;;;;;;;;;;;;;5034863;28;20019;-21
2023/07/14 09:58:33;;;;;;;;;;;;;;;;;;5034483;28;19984;-20
2023/07/14 10:00:59;;;;;;;;;;;;;;;;;;5034176;28;19932;-23
2023/07/14 10:03:30;;;;;;;;;;;;;;;;;;5033763;28;19921;-22
2023/07/14 10:05:57;;;;;;;;;;;;;;;;;;5033963;28;19909;-21
2023/07/14 10:08:23;;;;;;;;;;;;;;;;;;5016758;28;19909;-21
2023/07/14 10:10:49;;;;;;;;;;;;;;;;;;5034321;28;19913;-22
2023/07/14 10:13:15;;;;;;;;;;;;;;;;;;5034396;28;19951;-22
2023/07/14 10:15:42;;;;;;;;;;;;;;;;;;5034280;28;19964;-21
2023/07/14 10:18:08;;;;;;;;;;;;;;;;;;5034192;28;19974;-23
2023/07/14 10:20:34;;;;;;;;;;;;;;;;;;5034457;28;20307;-22
2023/07/14 10:23:00;;;;;;;;;;;;;;;;;;5034129;28;19920;-22
2023/07/14 10:25:26;;;;;;;;;;;;;;;;;;5034127;28;19925;-22
2023/07/14 10:27:52;;;;;;;;;;;;;;;;;;5034065;28;19920;-22
2023/07/14 10:30:18;;;;;;;;;;;;;;;;;;5033888;28;19913;-22
2023/07/14 10:32:44;;;;;;;;;;;;;;;;;;5016460;28;19909;-22
2023/07/14 10:35:10;;;;;;;;;;;;;;;;;;5033817;28;20352;-21
2023/07/14 10:37:36;;;;;;;;;;;;;;;;;;5034078;28;20026;-21
2023/07/14 10:40:04;;;;;;;;;;;;;;;;;;5016389;28;19909;-20
2023/07/14 10:42:30;;;;;;;;;;;;;;;;;;5034068;28;20332;-20
2023/07/14 10:44:57;;;;;;;;;;;;;;;;;;5033843;28;19916;-22
2023/07/14 10:47:23;;;;;;;;;;;;;;;;;;5034398;28;19921;-21
2023/07/14 10:49:49;;;;;;;;;;;;;;;;;;5033952;28;19995;-21
2023/07/14 10:52:15;;;;;;;;;;;;;;;;;;5034005;28;19932;-23
2023/07/14 10:54:41;;;;;;;;;;;;;;;;;;5034031;28;19909;-22
2023/07/14 10:57:07;;;;;;;;;;;;;;;;;;5033715;28;19913;-20
2023/07/14 10:59:34;;;;;;;;;;;;;;;;;;5033439;28;19975;-22
2023/07/14 11:02:00;;;;;;;;;;;;;;;;;;5033592;28;19917;-20
2023/07/14 11:04:26;;;;;;;;;;;;;;;;;;5033395;28;19928;-25
2023/07/14 11:06:52;;;;;;;;;;;;;;;;;;5033458;28;20004;-22
2023/07/14 11:09:18;;;;;;;;;;;;;;;;;;5033440;28;19968;-21
2023/07/14 11:11:44;;;;;;;;;;;;;;;;;;5033368;28;19910;-20
2023/07/14 11:14:11;;;;;;;;;;;;;;;;;;5033360;28;20001;-22
2023/07/14 11:16:37;;;;;;;;;;;;;;;;;;5015785;28;20313;-22
2023/07/14 11:19:03;;;;;;;;;;;;;;;;;;5033325;28;19959;-22
2023/07/14 11:21:29;;;;;;;;;;;;;;;;;;5033261;28;19909;-22
2023/07/14 11:23:56;;;;;;;;;;;;;;;;;;5034684;28;19959;-21
2023/07/14 11:26:22;;;;;;;;;;;;;;;;;;5019453;28;20026;-21
2023/07/14 11:28:48;;;;;;;;;;;;;;;;;;5019544;28;19909;-20
2023/07/14 11:31:14;;;;;;;;;;;;;;;;;;5019596;28;19909;-21
2023/07/14 11:33:39;;;;;;;;;;;;;;;;;;5019683;28;19913;-24
2023/07/14 11:36:05;;;;;;;;;;;;;;;;;;5037379;28;19916;-22
2023/07/14 11:38:31;;;;;;;;;;;;;;;;;;5037362;28;20340;-21
2023/07/14 11:40:57;;;;;;;;;;;;;;;;;;5037225;28;20309;-21
2023/07/14 11:43:23;;;;;;;;;;;;;;;;;;5037316;28;20219;-23
2023/07/14 11:45:49;;;;;;;;;;;;;;;;;;5037495;28;19920;-22
2023/07/14 11:48:15;;;;;;;;;;;;;;;;;;5037016;28;19909;-23
2023/07/14 11:50:41;;;;;;;;;;;;;;;;;;5019413;28;20012;-21
2023/07/14 11:53:09;;;;;;;;;;;;;;;;;;5036661;28;20024;-20
2023/07/14 11:55:36;;;;;;;;;;;;;;;;;;5036897;28;20263;-21
2023/07/14 11:58:04;;;;;;;;;;;;;;;;;;5036583;28;19924;-21
2023/07/14 12:00:30;;;;;;;;;;;;;;;;;;5036626;28;19929;-21
2023/07/14 12:02:56;;;;;;;;;;;;;;;;;;5036328;28;20370;-22
2023/07/14 12:05:25;;;;;;;;;;;;;;;;;;5036446;28;19940;-21
2023/07/14 12:07:51;;;;;;;;;;;;;;;;;;5036766;28;19920;-21
2023/07/14 12:10:17;;;;;;;;;;;;;;;;;;5018997;28;19972;-21
2023/07/14 12:12:43;;;;;;;;;;;;;;;;;;5018759;28;19948;-21
2023/07/14 12:15:09;;;;;;;;;;;;;;;;;;5018906;28;20031;-22
2023/07/14 12:17:35;;;;;;;;;;;;;;;;;;5018788;28;19921;-21
2023/07/14 12:20:03;;;;;;;;;;;;;;;;;;5036289;28;19909;-21
2023/07/14 12:22:29;;;;;;;;;;;;;;;;;;5036331;28;19921;-21
2023/07/14 12:24:55;;;;;;;;;;;;;;;;;;5018875;28;19909;-22
2023/07/14 12:27:21;;;;;;;;;;;;;;;;;;5036300;28;19909;-22
2023/07/14 12:29:47;;;;;;;;;;;;;;;;;;5036224;28;19919;-21
2023/07/14 12:32:13;;;;;;;;;;;;;;;;;;5036554;28;19913;-22
2023/07/14 12:34:39;;;;;;;;;;;;;;;;;;5036192;28;19939;-22
2023/07/14 12:37:05;;;;;;;;;;;;;;;;;;5035886;28;19990;-22
2023/07/14 12:39:31;;;;;;;;;;;;;;;;;;5018107;28;19909;-20
2023/07/14 12:41:57;;;;;;;;;;;;;;;;;;5035574;28;19909;-22
2023/07/14 12:44:24;;;;;;;;;;;;;;;;;;5018151;28;20217;-22
2023/07/14 12:46:50;;;;;;;;;;;;;;;;;;5035510;28;19913;-21
2023/07/14 12:49:16;;;;;;;;;;;;;;;;;;5035268;28;19909;-22
2023/07/14 12:51:42;;;;;;;;;;;;;;;;;;5018008;28;19913;-21
2023/07/14 12:54:08;;;;;;;;;;;;;;;;;;5035524;28;19923;-22
2023/07/14 12:56:34;;;;;;;;;;;;;;;;;;5035543;28;20328;-21
2023/07/14 12:58:59;;;;;;;;;;;;;;;;;;5035327;28;19968;-21
2023/07/14 13:01:25;;;;;;;;;;;;;;;;;;5035301;28;19927;-21
2023/07/14 13:03:51;;;;;;;;;;;;;;;;;;5001529;28;20230;-21
2023/07/14 13:06:17;;;;;;;;;;;;;;;;;;4996304;28;19921;-21
2023/07/14 13:08:44;;;;;;;;;;;;;;;;;;4996246;28;19910;-22
2023/07/14 13:11:10;;;;;;;;;;;;;;;;;;4996226;28;19979;-21
2023/07/14 13:13:36;;;;;;;;;;;;;;;;;;4996253;28;19916;-22
2023/07/14 13:16:02;;;;;;;;;;;;;;;;;;4996468;28;19910;-21
2023/07/14 13:18:30;;;;;;;;;;;;;;;;;;4996024;28;20042;-22
2023/07/14 13:20:56;;;;;;;;;;;;;;;;;;4994856;28;19910;-21
2023/07/14 13:23:24;;;;;;;;;;;;;;;;;;4995782;28;19910;-21
2023/07/14 13:25:51;;;;;;;;;;;;;;;;;;4996172;28;19917;-21
2023/07/14 13:28:16;;;;;;;;;;;;;;;;;;4996047;28;19914;-20
2023/07/14 13:30:42;;;;;;;;;;;;;;;;;;4995963;28;19910;-20
2023/07/14 13:33:08;;;;;;;;;;;;;;;;;;4995755;28;20001;-21
2023/07/14 13:35:36;;;;;;;;;;;;;;;;;;4994435;28;19909;-21
2023/07/14 13:38:02;;;;;;;;;;;;;;;;;;4995450;28;19981;-23
2023/07/14 13:40:28;;;;;;;;;;;;;;;;;;4995311;28;20000;-22
2023/07/14 13:42:54;;;;;;;;;;;;;;;;;;4995619;28;19921;-21
2023/07/14 13:45:20;;;;;;;;;;;;;;;;;;4994435;28;19924;-21
2023/07/14 13:47:46;;;;;;;;;;;;;;;;;;4993934;28;19909;-20
2023/07/14 13:50:12;;;;;;;;;;;;;;;;;;4995237;28;19996;-22
2023/07/14 13:52:38;;;;;;;;;;;;;;;;;;4995273;28;19914;-22
2023/07/14 13:55:04;;;;;;;;;;;;;;;;;;4995257;28;19920;-21
2023/07/14 13:57:30;;;;;;;;;;;;;;;;;;4994200;28;19917;-22
2023/07/14 13:59:57;;;;;;;;;;;;;;;;;;4995395;28;20004;-21
2023/07/14 14:02:23;;;;;;;;;;;;;;;;;;4997070;28;19953;-20
2023/07/14 14:04:50;;;;;;;;;;;;;;;;;;5034662;28;19956;-21
2023/07/14 14:07:16;;;;;;;;;;;;;;;;;;5034361;28;19954;-21
2023/07/14 14:09:41;;;;;;;;;;;;;;;;;;5034488;28;19917;-23
2023/07/14 14:12:07;;;;;;;;;;;;;;;;;;5034269;28;19967;-21
2023/07/14 14:14:33;;;;;;;;;;;;;;;;;;5034398;28;19992;-21
2023/07/14 14:16:59;;;;;;;;;;;;;;;;;;5034450;28;20346;-21
2023/07/14 14:19:25;;;;;;;;;;;;;;;;;;5034531;28;20344;-21
2023/07/14 14:21:51;;;;;;;;;;;;;;;;;;5034455;28;19952;-21
2023/07/14 14:24:17;;;;;;;;;;;;;;;;;;5034204;28;20076;-22
2023/07/14 14:26:43;;;;;;;;;;;;;;;;;;5034287;28;20229;-22
2023/07/14 14:29:09;;;;;;;;;;;;;;;;;;5034579;28;19992;-20
2023/07/14 14:31:35;;;;;;;;;;;;;;;;;;5016761;28;19940;-21
2023/07/14 14:34:01;;;;;;;;;;;;;;;;;;5034189;28;19910;-22
2023/07/14 14:36:27;;;;;;;;;;;;;;;;;;5034482;28;19917;-21
2023/07/14 14:38:53;;;;;;;;;;;;;;;;;;5034161;28;19913;-22
2023/07/14 14:41:19;;;;;;;;;;;;;;;;;;5034181;28;19913;-20
2023/07/14 14:43:48;;;;;;;;;;;;;;;;;;5034178;28;20255;-20
2023/07/14 14:46:14;;;;;;;;;;;;;;;;;;5034189;28;19999;-22
2023/07/14 14:48:40;;;;;;;;;;;;;;;;;;5034086;28;19913;-21
2023/07/14 14:51:06;;;;;;;;;;;;;;;;;;5016498;28;19959;-20
2023/07/14 14:53:34;;;;;;;;;;;;;;;;;;5033806;28;19913;-21
2023/07/14 14:56:00;;;;;;;;;;;;;;;;;;5033861;28;19957;-21
2023/07/14 14:58:26;;;;;;;;;;;;;;;;;;5034813;28;19994;-22
2023/07/14 15:00:52;;;;;;;;;;;;;;;;;;5037687;28;19996;-21
2023/07/14 15:03:18;;;;;;;;;;;;;;;;;;5037776;28;19960;-22
2023/07/14 15:05:44;;;;;;;;;;;;;;;;;;5037707;28;19935;-21
2023/07/14 15:08:10;;;;;;;;;;;;;;;;;;5019821;28;19916;-20
2023/07/14 15:10:36;;;;;;;;;;;;;;;;;;5037175;28;19995;-21
2023/07/14 15:13:02;;;;;;;;;;;;;;;;;;5037098;28;20004;-23
2023/07/14 15:15:28;;;;;;;;;;;;;;;;;;5019385;28;19909;-23
2023/07/14 15:17:54;;;;;;;;;;;;;;;;;;5036750;28;19967;-22
2023/07/14 15:20:21;;;;;;;;;;;;;;;;;;5019296;28;19909;-22
2023/07/14 15:22:47;;;;;;;;;;;;;;;;;;5036794;28;19909;-21
2023/07/14 15:25:13;;;;;;;;;;;;;;;;;;5019284;28;19917;-22
2023/07/14 15:27:39;;;;;;;;;;;;;;;;;;5036786;28;19909;-22
2023/07/14 15:30:05;;;;;;;;;;;;;;;;;;5036689;28;20248;-23
2023/07/14 15:32:31;;;;;;;;;;;;;;;;;;5036773;28;20079;-21
2023/07/14 15:34:57;;;;;;;;;;;;;;;;;;5019046;28;20378;-21
2023/07/14 15:37:23;;;;;;;;;;;;;;;;;;5036398;28;19984;-21
2023/07/14 15:39:49;;;;;;;;;;;;;;;;;;5036708;28;19929;-22
2023/07/14 15:42:15;;;;;;;;;;;;;;;;;;5036374;28;19909;-22
2023/07/14 15:44:41;;;;;;;;;;;;;;;;;;5036365;28;19950;-20
2023/07/14 15:47:07;;;;;;;;;;;;;;;;;;5036343;28;19919;-21
2023/07/14 15:49:33;;;;;;;;;;;;;;;;;;5018739;28;20325;-21
2023/07/14 15:51:59;;;;;;;;;;;;;;;;;;5036354;28;19913;-20
2023/07/14 15:54:25;;;;;;;;;;;;;;;;;;5018546;28;19909;-22
2023/07/14 15:56:51;;;;;;;;;;;;;;;;;;5035628;28;19909;-22
2023/07/14 15:59:17;;;;;;;;;;;;;;;;;;5035921;28;19916;-23
2023/07/14 16:01:43;;;;;;;;;;;;;;;;;;5036327;28;19909;-21
2023/07/14 16:04:09;;;;;;;;;;;;;;;;;;5036340;28;19925;-21
2023/07/14 16:06:35;;;;;;;;;;;;;;;;;;5019270;28;19909;-22
2023/07/14 16:09:01;;;;;;;;;;;;;;;;;;5018716;28;20248;-22
2023/07/14 16:11:27;;;;;;;;;;;;;;;;;;5036367;28;19920;-21
2023/07/14 16:13:53;;;;;;;;;;;;;;;;;;5036256;28;19916;-21
2023/07/14 16:16:19;;;;;;;;;;;;;;;;;;5018842;28;20449;-20
2023/07/14 16:18:45;;;;;;;;;;;;;;;;;;5036395;28;20313;-20
2023/07/14 16:21:11;;;;;;;;;;;;;;;;;;5036384;28;19963;-21
2023/07/14 16:23:37;;;;;;;;;;;;;;;;;;5036418;28;19920;-23
2023/07/14 16:26:03;;;;;;;;;;;;;;;;;;5036277;28;19909;-23
2023/07/14 16:28:29;;;;;;;;;;;;;;;;;;5036540;28;20034;-22
2023/07/14 16:30:55;;;;;;;;;;;;;;;;;;5036088;28;19909;-20
2023/07/14 16:33:21;;;;;;;;;;;;;;;;;;5036149;28;19992;-22
2023/07/14 16:35:48;;;;;;;;;;;;;;;;;;5036158;28;20312;-21
2023/07/14 16:38:14;;;;;;;;;;;;;;;;;;5035660;28;19913;-23